sensor_id;sensor_type;location;lat;lon;timestamp;temperature;humidity
39849;DHT22;25518;47.878;15.914;2023-08-08T00:01:30;12.90;99.90
39849;DHT22;25518;47.878;15.914;2023-08-08T00:04:20;12.80;99.90
39849;DHT22;25518;47.878;15.914;2023-08-08T00:07:10;12.90;99.90
39849;DHT22;25518;47.878;15.914;2023-08-08T00:09:59;12.90;99.90
39849;DHT22;25518;47.878;15.914;2023-08-08T00:12:49;12.90;99.90
39849;DHT22;25518;47.878;15.914;2023-08-08T00:15:39;12.80;99.90
39849;DHT22;25518;47.878;15.914;2023-08-08T00:18:29;11.20;99.90
39849;DHT22;25518;47.878;15.914;2023-08-08T00:21:19;12.80;99.90
39849;DHT22;25518;47.878;15.914;2023-08-08T00:24:09;12.80;99.90
39849;DHT22;25518;47.878;15.914;2023-08-08T00:26:59;12.80;99.90
39849;DHT22;25518;47.878;15.914;2023-08-08T00:29:48;12.90;99.90
39849;DHT22;25518;47.878;15.914;2023-08-08T00:32:40;12.90;99.90
39849;DHT22;25518;47.878;15.914;2023-08-08T00:35:29;12.80;99.90
39849;DHT22;25518;47.878;15.914;2023-08-08T00:38:19;12.80;99.90
39849;DHT22;25518;47.878;15.914;2023-08-08T00:41:09;12.80;99.90
39849;DHT22;25518;47.878;15.914;2023-08-08T00:43:58;12.70;99.90
39849;DHT22;25518;47.878;15.914;2023-08-08T00:46:48;12.70;99.90
39849;DHT22;25518;47.878;15.914;2023-08-08T00:49:39;12.80;99.90
39849;DHT22;25518;47.878;15.914;2023-08-08T00:52:28;12.70;99.90
39849;DHT22;25518;47.878;15.914;2023-08-08T00:55:18;12.70;99.90
39849;DHT22;25518;47.878;15.914;2023-08-08T00:58:08;12.70;99.90
39849;DHT22;25518;47.878;15.914;2023-08-08T01:00:58;12.70;99.90
39849;DHT22;25518;47.878;15.914;2023-08-08T01:03:49;12.40;99.90
39849;DHT22;25518;47.878;15.914;2023-08-08T01:09:44;12.40;99.90
39849;DHT22;25518;47.878;15.914;2023-08-08T01:12:59;12.30;99.90
39849;DHT22;25518;47.878;15.914;2023-08-08T01:15:50;12.40;99.90
39849;DHT22;25518;47.878;15.914;2023-08-08T01:18:41;12.50;99.90
39849;DHT22;25518;47.878;15.914;2023-08-08T01:21:34;12.50;99.90
39849;DHT22;25518;47.878;15.914;2023-08-08T01:24:26;12.40;99.90
39849;DHT22;25518;47.878;15.914;2023-08-08T01:27:18;12.30;99.90
39849;DHT22;25518;47.878;15.914;2023-08-08T01:30:08;12.30;99.90
39849;DHT22;25518;47.878;15.914;2023-08-08T01:32:59;12.30;99.90
39849;DHT22;25518;47.878;15.914;2023-08-08T01:35:57;12.20;99.90
39849;DHT22;25518;47.878;15.914;2023-08-08T01:38:49;12.30;99.90
39849;DHT22;25518;47.878;15.914;2023-08-08T01:41:42;12.30;99.90
39849;DHT22;25518;47.878;15.914;2023-08-08T01:44:33;12.40;99.90
39849;DHT22;25518;47.878;15.914;2023-08-08T01:47:24;12.30;99.90
39849;DHT22;25518;47.878;15.914;2023-08-08T01:50:14;12.30;99.90
39849;DHT22;25518;47.878;15.914;2023-08-08T01:53:04;12.30;99.90
39849;DHT22;25518;47.878;15.914;2023-08-08T01:55:53;12.30;99.90
39849;DHT22;25518;47.878;15.914;2023-08-08T01:58:43;12.30;99.90
39849;DHT22;25518;47.878;15.914;2023-08-08T02:01:32;12.30;99.90
39849;DHT22;25518;47.878;15.914;2023-08-08T02:04:22;12.20;99.90
39849;DHT22;25518;47.878;15.914;2023-08-08T02:07:12;12.10;99.90
39849;DHT22;25518;47.878;15.914;2023-08-08T02:10:01;12.10;99.90
39849;DHT22;25518;47.878;15.914;2023-08-08T02:12:51;12.20;99.90
39849;DHT22;25518;47.878;15.914;2023-08-08T02:15:41;12.10;99.90
39849;DHT22;25518;47.878;15.914;2023-08-08T02:18:30;11.90;99.90
39849;DHT22;25518;47.878;15.914;2023-08-08T02:21:20;12.00;99.90
39849;DHT22;25518;47.878;15.914;2023-08-08T02:24:10;11.90;99.90
39849;DHT22;25518;47.878;15.914;2023-08-08T02:26:59;11.60;99.90
39849;DHT22;25518;47.878;15.914;2023-08-08T02:29:49;11.80;99.90
39849;DHT22;25518;47.878;15.914;2023-08-08T02:32:39;11.60;99.90
39849;DHT22;25518;47.878;15.914;2023-08-08T02:35:28;11.60;99.90
39849;DHT22;25518;47.878;15.914;2023-08-08T02:38:19;11.60;99.90
39849;DHT22;25518;47.878;15.914;2023-08-08T02:41:08;11.50;99.90
39849;DHT22;25518;47.878;15.914;2023-08-08T02:43:58;11.50;99.90
39849;DHT22;25518;47.878;15.914;2023-08-08T02:46:48;11.50;99.90
39849;DHT22;25518;47.878;15.914;2023-08-08T02:49:38;11.40;99.90
39849;DHT22;25518;47.878;15.914;2023-08-08T02:52:27;11.00;99.90
39849;DHT22;25518;47.878;15.914;2023-08-08T02:55:17;8.70;99.90
39849;DHT22;25518;47.878;15.914;2023-08-08T02:58:06;10.90;99.90
39849;DHT22;25518;47.878;15.914;2023-08-08T03:17:51;10.60;99.90
39849;DHT22;25518;47.878;15.914;2023-08-08T03:20:41;10.70;99.90
39849;DHT22;25518;47.878;15.914;2023-08-08T03:23:30;10.70;99.90
39849;DHT22;25518;47.878;15.914;2023-08-08T03:26:20;10.80;99.90
39849;DHT22;25518;47.878;15.914;2023-08-08T03:29:10;10.80;99.90
39849;DHT22;25518;47.878;15.914;2023-08-08T03:32:00;10.70;99.90
39849;DHT22;25518;47.878;15.914;2023-08-08T03:34:50;10.70;99.90
39849;DHT22;25518;47.878;15.914;2023-08-08T03:37:39;10.60;99.90
39849;DHT22;25518;47.878;15.914;2023-08-08T03:40:29;10.60;99.90
39849;DHT22;25518;47.878;15.914;2023-08-08T03:43:19;10.30;99.90
39849;DHT22;25518;47.878;15.914;2023-08-08T03:46:09;10.30;99.90
39849;DHT22;25518;47.878;15.914;2023-08-08T03:49:00;10.30;99.90
39849;DHT22;25518;47.878;15.914;2023-08-08T03:51:49;10.40;99.90
39849;DHT22;25518;47.878;15.914;2023-08-08T03:54:39;10.40;99.90
39849;DHT22;25518;47.878;15.914;2023-08-08T03:57:29;10.50;99.90
39849;DHT22;25518;47.878;15.914;2023-08-08T04:00:19;10.50;99.90
39849;DHT22;25518;47.878;15.914;2023-08-08T04:03:08;10.60;99.90
39849;DHT22;25518;47.878;15.914;2023-08-08T04:05:58;10.60;99.90
39849;DHT22;25518;47.878;15.914;2023-08-08T04:08:47;10.60;99.90
39849;DHT22;25518;47.878;15.914;2023-08-08T04:11:37;10.60;99.90
39849;DHT22;25518;47.878;15.914;2023-08-08T04:14:26;10.70;99.90
39849;DHT22;25518;47.878;15.914;2023-08-08T04:17:16;10.70;99.90
39849;DHT22;25518;47.878;15.914;2023-08-08T04:20:06;10.70;99.90
39849;DHT22;25518;47.878;15.914;2023-08-08T04:22:56;10.90;99.90
39849;DHT22;25518;47.878;15.914;2023-08-08T04:25:45;10.80;99.90
39849;DHT22;25518;47.878;15.914;2023-08-08T04:28:35;10.80;99.90
39849;DHT22;25518;47.878;15.914;2023-08-08T04:31:25;11.00;99.90
39849;DHT22;25518;47.878;15.914;2023-08-08T04:34:15;10.90;99.90
39849;DHT22;25518;47.878;15.914;2023-08-08T04:37:06;10.90;99.90
39849;DHT22;25518;47.878;15.914;2023-08-08T04:39:56;11.00;99.90
39849;DHT22;25518;47.878;15.914;2023-08-08T04:42:45;10.90;99.90
39849;DHT22;25518;47.878;15.914;2023-08-08T04:45:35;11.20;99.90
39849;DHT22;25518;47.878;15.914;2023-08-08T04:48:25;11.30;99.90
39849;DHT22;25518;47.878;15.914;2023-08-08T04:51:14;11.30;99.90
39849;DHT22;25518;47.878;15.914;2023-08-08T04:54:04;11.30;99.90
39849;DHT22;25518;47.878;15.914;2023-08-08T04:56:53;11.30;99.90
39849;DHT22;25518;47.878;15.914;2023-08-08T04:59:43;11.50;99.90
39849;DHT22;25518;47.878;15.914;2023-08-08T05:02:33;11.70;99.90
39849;DHT22;25518;47.878;15.914;2023-08-08T05:05:22;11.70;99.90
39849;DHT22;25518;47.878;15.914;2023-08-08T05:08:13;11.80;99.90
39849;DHT22;25518;47.878;15.914;2023-08-08T05:11:04;11.80;99.90
39849;DHT22;25518;47.878;15.914;2023-08-08T05:13:53;11.90;99.90
39849;DHT22;25518;47.878;15.914;2023-08-08T05:16:43;12.10;99.90
39849;DHT22;25518;47.878;15.914;2023-08-08T05:19:32;12.00;99.90
39849;DHT22;25518;47.878;15.914;2023-08-08T05:22:22;12.00;99.90
39849;DHT22;25518;47.878;15.914;2023-08-08T05:25:12;12.20;99.90
39849;DHT22;25518;47.878;15.914;2023-08-08T05:28:02;12.30;99.90
39849;DHT22;25518;47.878;15.914;2023-08-08T05:30:52;12.50;99.90
39849;DHT22;25518;47.878;15.914;2023-08-08T05:33:42;12.50;99.90
39849;DHT22;25518;47.878;15.914;2023-08-08T05:36:32;12.60;99.90
39849;DHT22;25518;47.878;15.914;2023-08-08T05:39:22;12.80;99.90
39849;DHT22;25518;47.878;15.914;2023-08-08T05:42:12;12.90;99.90
39849;DHT22;25518;47.878;15.914;2023-08-08T05:45:01;12.90;99.90
39849;DHT22;25518;47.878;15.914;2023-08-08T05:47:51;13.10;99.90
39849;DHT22;25518;47.878;15.914;2023-08-08T05:50:41;13.20;99.90
39849;DHT22;25518;47.878;15.914;2023-08-08T05:53:31;13.30;99.90
39849;DHT22;25518;47.878;15.914;2023-08-08T05:56:22;13.50;99.90
39849;DHT22;25518;47.878;15.914;2023-08-08T05:59:11;13.70;99.90
39849;DHT22;25518;47.878;15.914;2023-08-08T06:02:01;13.80;99.90
39849;DHT22;25518;47.878;15.914;2023-08-08T06:04:51;13.90;99.90
39849;DHT22;25518;47.878;15.914;2023-08-08T06:07:40;14.00;99.90
39849;DHT22;25518;47.878;15.914;2023-08-08T06:10:30;14.10;99.90
39849;DHT22;25518;47.878;15.914;2023-08-08T06:13:20;14.20;99.90
39849;DHT22;25518;47.878;15.914;2023-08-08T06:16:09;14.20;99.90
39849;DHT22;25518;47.878;15.914;2023-08-08T06:18:59;14.30;99.90
39849;DHT22;25518;47.878;15.914;2023-08-08T06:21:49;14.40;99.90
39849;DHT22;25518;47.878;15.914;2023-08-08T06:24:39;14.50;99.90
39849;DHT22;25518;47.878;15.914;2023-08-08T06:27:29;14.60;99.90
39849;DHT22;25518;47.878;15.914;2023-08-08T06:30:20;14.60;99.90
39849;DHT22;25518;47.878;15.914;2023-08-08T06:33:10;14.60;99.90
39849;DHT22;25518;47.878;15.914;2023-08-08T06:36:02;14.80;99.90
39849;DHT22;25518;47.878;15.914;2023-08-08T06:38:52;15.10;99.90
39849;DHT22;25518;47.878;15.914;2023-08-08T06:41:42;15.20;99.90
39849;DHT22;25518;47.878;15.914;2023-08-08T06:44:33;14.10;99.90
39849;DHT22;25518;47.878;15.914;2023-08-08T06:47:23;15.50;99.90
39849;DHT22;25518;47.878;15.914;2023-08-08T06:50:12;15.50;99.90
39849;DHT22;25518;47.878;15.914;2023-08-08T06:53:03;15.60;99.90
39849;DHT22;25518;47.878;15.914;2023-08-08T06:55:53;15.50;99.90
39849;DHT22;25518;47.878;15.914;2023-08-08T06:58:42;15.50;99.90
39849;DHT22;25518;47.878;15.914;2023-08-08T07:01:32;15.30;99.90
39849;DHT22;25518;47.878;15.914;2023-08-08T07:04:23;15.30;99.90
39849;DHT22;25518;47.878;15.914;2023-08-08T07:07:13;15.20;99.90
39849;DHT22;25518;47.878;15.914;2023-08-08T07:10:04;15.30;99.90
39849;DHT22;25518;47.878;15.914;2023-08-08T07:12:54;15.30;99.90
39849;DHT22;25518;47.878;15.914;2023-08-08T07:15:44;15.30;99.90
39849;DHT22;25518;47.878;15.914;2023-08-08T07:18:34;15.50;99.90
39849;DHT22;25518;47.878;15.914;2023-08-08T07:21:23;15.30;99.90
39849;DHT22;25518;47.878;15.914;2023-08-08T07:24:13;15.30;99.90
39849;DHT22;25518;47.878;15.914;2023-08-08T07:27:03;15.30;99.90
39849;DHT22;25518;47.878;15.914;2023-08-08T07:29:53;15.30;99.90
39849;DHT22;25518;47.878;15.914;2023-08-08T07:32:42;15.40;99.90
39849;DHT22;25518;47.878;15.914;2023-08-08T07:35:33;15.60;99.90
39849;DHT22;25518;47.878;15.914;2023-08-08T07:38:22;15.80;99.90
39849;DHT22;25518;47.878;15.914;2023-08-08T07:41:12;16.00;99.90
39849;DHT22;25518;47.878;15.914;2023-08-08T07:44:02;15.60;99.90
39849;DHT22;25518;47.878;15.914;2023-08-08T07:46:51;16.00;99.90
39849;DHT22;25518;47.878;15.914;2023-08-08T07:49:41;16.20;99.90
39849;DHT22;25518;47.878;15.914;2023-08-08T07:52:31;16.20;99.90
39849;DHT22;25518;47.878;15.914;2023-08-08T07:55:20;16.30;99.90
39849;DHT22;25518;47.878;15.914;2023-08-08T07:58:10;16.20;99.90
39849;DHT22;25518;47.878;15.914;2023-08-08T08:01:00;16.20;99.90
39849;DHT22;25518;47.878;15.914;2023-08-08T08:03:49;16.40;99.90
39849;DHT22;25518;47.878;15.914;2023-08-08T08:06:39;16.70;99.90
39849;DHT22;25518;47.878;15.914;2023-08-08T08:09:29;16.60;99.90
39849;DHT22;25518;47.878;15.914;2023-08-08T08:12:18;16.60;99.90
39849;DHT22;25518;47.878;15.914;2023-08-08T08:15:09;16.70;99.90
39849;DHT22;25518;47.878;15.914;2023-08-08T08:17:59;16.90;99.90
39849;DHT22;25518;47.878;15.914;2023-08-08T08:20:48;16.20;99.90
39849;DHT22;25518;47.878;15.914;2023-08-08T08:23:38;16.70;99.90
39849;DHT22;25518;47.878;15.914;2023-08-08T08:26:28;16.70;99.90
39849;DHT22;25518;47.878;15.914;2023-08-08T08:29:17;14.90;99.90
39849;DHT22;25518;47.878;15.914;2023-08-08T08:32:08;16.90;99.90
39849;DHT22;25518;47.878;15.914;2023-08-08T08:34:58;16.90;99.90
39849;DHT22;25518;47.878;15.914;2023-08-08T08:37:47;17.20;99.90
39849;DHT22;25518;47.878;15.914;2023-08-08T08:40:39;17.10;99.90
39849;DHT22;25518;47.878;15.914;2023-08-08T08:43:30;16.90;99.90
39849;DHT22;25518;47.878;15.914;2023-08-08T08:46:22;16.80;99.90
39849;DHT22;25518;47.878;15.914;2023-08-08T08:49:15;16.60;99.90
39849;DHT22;25518;47.878;15.914;2023-08-08T08:52:07;16.40;99.90
39849;DHT22;25518;47.878;15.914;2023-08-08T08:54:57;16.40;99.90
39849;DHT22;25518;47.878;15.914;2023-08-08T08:57:48;16.70;99.90
39849;DHT22;25518;47.878;15.914;2023-08-08T09:00:39;17.10;99.90
39849;DHT22;25518;47.878;15.914;2023-08-08T09:03:29;17.50;99.90
39849;DHT22;25518;47.878;15.914;2023-08-08T09:06:20;17.80;99.90
39849;DHT22;25518;47.878;15.914;2023-08-08T09:09:10;18.20;99.90
39849;DHT22;25518;47.878;15.914;2023-08-08T09:12:02;19.20;99.90
39849;DHT22;25518;47.878;15.914;2023-08-08T09:14:56;17.90;99.90
39849;DHT22;25518;47.878;15.914;2023-08-08T09:17:46;17.60;99.90
39849;DHT22;25518;47.878;15.914;2023-08-08T09:20:36;17.50;99.90
39849;DHT22;25518;47.878;15.914;2023-08-08T09:23:26;17.60;99.90
39849;DHT22;25518;47.878;15.914;2023-08-08T09:26:16;17.80;99.90
39849;DHT22;25518;47.878;15.914;2023-08-08T09:29:07;18.00;99.90
39849;DHT22;25518;47.878;15.914;2023-08-08T09:31:57;18.20;99.90
39849;DHT22;25518;47.878;15.914;2023-08-08T09:34:46;18.40;99.90
39849;DHT22;25518;47.878;15.914;2023-08-08T09:37:37;18.30;99.90
39849;DHT22;25518;47.878;15.914;2023-08-08T09:40:28;18.40;99.90
39849;DHT22;25518;47.878;15.914;2023-08-08T09:43:17;16.60;99.90
39849;DHT22;25518;47.878;15.914;2023-08-08T09:46:08;18.80;99.90
39849;DHT22;25518;47.878;15.914;2023-08-08T09:48:58;18.90;99.90
39849;DHT22;25518;47.878;15.914;2023-08-08T09:51:49;18.90;99.90
39849;DHT22;25518;47.878;15.914;2023-08-08T09:54:40;19.10;99.90
39849;DHT22;25518;47.878;15.914;2023-08-08T09:57:32;19.00;99.90
39849;DHT22;25518;47.878;15.914;2023-08-08T10:00:22;19.10;99.90
39849;DHT22;25518;47.878;15.914;2023-08-08T10:03:14;19.30;99.90
39849;DHT22;25518;47.878;15.914;2023-08-08T10:06:03;19.60;99.90
39849;DHT22;25518;47.878;15.914;2023-08-08T10:08:53;19.60;99.90
39849;DHT22;25518;47.878;15.914;2023-08-08T10:11:44;19.40;99.90
39849;DHT22;25518;47.878;15.914;2023-08-08T10:14:36;19.30;99.90
39849;DHT22;25518;47.878;15.914;2023-08-08T10:17:26;19.60;99.90
39849;DHT22;25518;47.878;15.914;2023-08-08T10:20:19;19.80;99.90
39849;DHT22;25518;47.878;15.914;2023-08-08T10:23:08;20.20;99.90
39849;DHT22;25518;47.878;15.914;2023-08-08T10:25:58;20.40;99.90
39849;DHT22;25518;47.878;15.914;2023-08-08T10:28:57;20.40;99.90
39849;DHT22;25518;47.878;15.914;2023-08-08T10:34:48;20.30;99.90
39849;DHT22;25518;47.878;15.914;2023-08-08T10:37:38;20.40;99.90
39849;DHT22;25518;47.878;15.914;2023-08-08T10:40:32;20.30;98.90
39849;DHT22;25518;47.878;15.914;2023-08-08T10:43:28;20.50;98.70
39849;DHT22;25518;47.878;15.914;2023-08-08T10:46:34;20.40;99.90
39849;DHT22;25518;47.878;15.914;2023-08-08T10:49:24;20.20;99.20
39849;DHT22;25518;47.878;15.914;2023-08-08T10:52:15;19.60;99.90
39849;DHT22;25518;47.878;15.914;2023-08-08T10:55:05;19.40;99.90
39849;DHT22;25518;47.878;15.914;2023-08-08T10:58:05;19.40;99.90
39849;DHT22;25518;47.878;15.914;2023-08-08T11:00:55;20.10;99.90
39849;DHT22;25518;47.878;15.914;2023-08-08T11:03:47;20.20;99.90
39849;DHT22;25518;47.878;15.914;2023-08-08T11:06:41;19.90;99.90
39849;DHT22;25518;47.878;15.914;2023-08-08T11:09:30;19.70;99.90
39849;DHT22;25518;47.878;15.914;2023-08-08T11:12:20;19.60;99.90
39849;DHT22;25518;47.878;15.914;2023-08-08T11:15:10;19.40;99.90
39849;DHT22;25518;47.878;15.914;2023-08-08T11:18:00;19.50;99.90
39849;DHT22;25518;47.878;15.914;2023-08-08T11:20:50;19.50;99.90
39849;DHT22;25518;47.878;15.914;2023-08-08T11:23:45;19.70;99.90
39849;DHT22;25518;47.878;15.914;2023-08-08T11:26:36;19.80;98.80
39849;DHT22;25518;47.878;15.914;2023-08-08T11:29:26;19.60;99.90
39849;DHT22;25518;47.878;15.914;2023-08-08T11:32:19;19.40;99.80
39849;DHT22;25518;47.878;15.914;2023-08-08T11:35:09;19.30;99.80
39849;DHT22;25518;47.878;15.914;2023-08-08T11:37:59;19.20;99.90
39849;DHT22;25518;47.878;15.914;2023-08-08T11:40:49;19.50;99.90
39849;DHT22;25518;47.878;15.914;2023-08-08T11:43:40;19.80;99.20
39849;DHT22;25518;47.878;15.914;2023-08-08T11:46:30;20.00;97.50
39849;DHT22;25518;47.878;15.914;2023-08-08T11:49:20;20.20;98.60
39849;DHT22;25518;47.878;15.914;2023-08-08T11:52:12;20.60;98.00
39849;DHT22;25518;47.878;15.914;2023-08-08T11:55:02;20.80;97.10
39849;DHT22;25518;47.878;15.914;2023-08-08T11:57:54;20.80;97.50
39849;DHT22;25518;47.878;15.914;2023-08-08T12:00:46;20.60;98.60
39849;DHT22;25518;47.878;15.914;2023-08-08T12:03:36;20.30;97.20
39849;DHT22;25518;47.878;15.914;2023-08-08T12:06:29;19.70;98.20
39849;DHT22;25518;47.878;15.914;2023-08-08T12:09:18;19.60;98.30
39849;DHT22;25518;47.878;15.914;2023-08-08T12:12:08;19.60;99.90
39849;DHT22;25518;47.878;15.914;2023-08-08T12:14:58;20.00;99.30
39849;DHT22;25518;47.878;15.914;2023-08-08T12:17:47;20.50;99.00
39849;DHT22;25518;47.878;15.914;2023-08-08T12:20:37;20.50;97.90
39849;DHT22;25518;47.878;15.914;2023-08-08T12:23:27;20.80;97.10
39849;DHT22;25518;47.878;15.914;2023-08-08T12:26:17;20.90;97.00
39849;DHT22;25518;47.878;15.914;2023-08-08T12:29:08;20.70;95.10
39849;DHT22;25518;47.878;15.914;2023-08-08T12:31:58;20.70;95.50
39849;DHT22;25518;47.878;15.914;2023-08-08T12:34:48;21.00;95.60
39849;DHT22;25518;47.878;15.914;2023-08-08T12:37:37;21.20;96.40
39849;DHT22;25518;47.878;15.914;2023-08-08T12:40:27;21.20;95.80
39849;DHT22;25518;47.878;15.914;2023-08-08T12:43:16;21.60;96.20
39849;DHT22;25518;47.878;15.914;2023-08-08T12:46:07;21.80;94.30
39849;DHT22;25518;47.878;15.914;2023-08-08T12:48:57;21.90;93.10
39849;DHT22;25518;47.878;15.914;2023-08-08T12:51:46;21.90;93.80
39849;DHT22;25518;47.878;15.914;2023-08-08T12:54:36;22.00;93.70
39849;DHT22;25518;47.878;15.914;2023-08-08T12:57:25;22.10;93.10
39849;DHT22;25518;47.878;15.914;2023-08-08T13:00:15;22.20;90.50
39849;DHT22;25518;47.878;15.914;2023-08-08T13:03:05;22.20;89.50
39849;DHT22;25518;47.878;15.914;2023-08-08T13:05:55;22.30;90.30
39849;DHT22;25518;47.878;15.914;2023-08-08T13:08:44;22.50;92.10
39849;DHT22;25518;47.878;15.914;2023-08-08T13:11:34;22.50;89.60
39849;DHT22;25518;47.878;15.914;2023-08-08T13:14:24;22.30;90.90
39849;DHT22;25518;47.878;15.914;2023-08-08T13:17:14;22.00;90.60
39849;DHT22;25518;47.878;15.914;2023-08-08T13:20:04;22.20;92.50
39849;DHT22;25518;47.878;15.914;2023-08-08T13:22:57;22.40;92.00
39849;DHT22;25518;47.878;15.914;2023-08-08T13:25:46;22.40;95.40
39849;DHT22;25518;47.878;15.914;2023-08-08T13:28:36;22.50;91.70
39849;DHT22;25518;47.878;15.914;2023-08-08T13:31:28;22.60;92.90
39849;DHT22;25518;47.878;15.914;2023-08-08T13:34:17;22.60;93.50
39849;DHT22;25518;47.878;15.914;2023-08-08T13:37:07;22.60;92.70
39849;DHT22;25518;47.878;15.914;2023-08-08T13:39:57;22.70;93.50
39849;DHT22;25518;47.878;15.914;2023-08-08T13:42:46;20.80;91.50
39849;DHT22;25518;47.878;15.914;2023-08-08T13:45:37;22.30;91.40
39849;DHT22;25518;47.878;15.914;2023-08-08T13:48:27;22.00;93.10
39849;DHT22;25518;47.878;15.914;2023-08-08T13:51:16;22.10;92.10
39849;DHT22;25518;47.878;15.914;2023-08-08T13:54:06;22.00;91.60
39849;DHT22;25518;47.878;15.914;2023-08-08T13:56:56;21.90;93.80
39849;DHT22;25518;47.878;15.914;2023-08-08T13:59:45;22.00;91.00
39849;DHT22;25518;47.878;15.914;2023-08-08T14:02:35;22.10;92.90
39849;DHT22;25518;47.878;15.914;2023-08-08T14:05:25;22.10;90.40
39849;DHT22;25518;47.878;15.914;2023-08-08T14:08:16;21.80;91.00
39849;DHT22;25518;47.878;15.914;2023-08-08T14:11:06;21.80;92.10
39849;DHT22;25518;47.878;15.914;2023-08-08T14:13:55;21.90;91.10
39849;DHT22;25518;47.878;15.914;2023-08-08T14:16:45;21.80;91.00
39849;DHT22;25518;47.878;15.914;2023-08-08T14:19:35;21.90;91.60
39849;DHT22;25518;47.878;15.914;2023-08-08T14:22:24;21.90;91.90
39849;DHT22;25518;47.878;15.914;2023-08-08T14:25:15;21.80;89.60
39849;DHT22;25518;47.878;15.914;2023-08-08T14:28:04;22.00;93.70
39849;DHT22;25518;47.878;15.914;2023-08-08T14:30:54;22.10;91.70
39849;DHT22;25518;47.878;15.914;2023-08-08T14:33:43;22.10;91.10
39849;DHT22;25518;47.878;15.914;2023-08-08T14:36:33;22.10;91.40
39849;DHT22;25518;47.878;15.914;2023-08-08T14:39:24;22.10;90.80
39849;DHT22;25518;47.878;15.914;2023-08-08T14:42:13;22.20;90.70
39849;DHT22;25518;47.878;15.914;2023-08-08T14:45:03;22.10;90.80
39849;DHT22;25518;47.878;15.914;2023-08-08T14:47:53;22.00;91.30
39849;DHT22;25518;47.878;15.914;2023-08-08T14:50:43;22.20;91.10
39849;DHT22;25518;47.878;15.914;2023-08-08T14:53:33;22.30;92.20
39849;DHT22;25518;47.878;15.914;2023-08-08T14:56:22;22.40;93.20
39849;DHT22;25518;47.878;15.914;2023-08-08T14:59:13;22.40;92.90
39849;DHT22;25518;47.878;15.914;2023-08-08T15:02:03;22.30;89.10
39849;DHT22;25518;47.878;15.914;2023-08-08T15:04:52;22.50;90.20
39849;DHT22;25518;47.878;15.914;2023-08-08T15:07:42;22.40;90.30
39849;DHT22;25518;47.878;15.914;2023-08-08T15:10:31;22.50;90.80
39849;DHT22;25518;47.878;15.914;2023-08-08T15:13:21;22.50;92.00
39849;DHT22;25518;47.878;15.914;2023-08-08T15:16:11;22.40;91.80
39849;DHT22;25518;47.878;15.914;2023-08-08T15:19:01;22.50;92.30
39849;DHT22;25518;47.878;15.914;2023-08-08T15:21:52;22.30;91.20
39849;DHT22;25518;47.878;15.914;2023-08-08T15:24:41;22.00;91.80
39849;DHT22;25518;47.878;15.914;2023-08-08T15:27:31;22.10;90.80
39849;DHT22;25518;47.878;15.914;2023-08-08T15:30:21;22.00;89.70
39849;DHT22;25518;47.878;15.914;2023-08-08T15:33:11;21.90;91.40
39849;DHT22;25518;47.878;15.914;2023-08-08T15:36:00;22.00;90.90
39849;DHT22;25518;47.878;15.914;2023-08-08T15:38:50;22.10;90.60
39849;DHT22;25518;47.878;15.914;2023-08-08T15:41:39;22.10;91.50
39849;DHT22;25518;47.878;15.914;2023-08-08T15:44:29;21.80;91.80
39849;DHT22;25518;47.878;15.914;2023-08-08T15:47:18;21.90;90.60
39849;DHT22;25518;47.878;15.914;2023-08-08T15:50:09;21.90;90.00
39849;DHT22;25518;47.878;15.914;2023-08-08T15:52:59;22.10;90.20
39849;DHT22;25518;47.878;15.914;2023-08-08T15:55:50;22.00;90.40
39849;DHT22;25518;47.878;15.914;2023-08-08T15:58:40;22.10;87.70
39849;DHT22;25518;47.878;15.914;2023-08-08T16:01:29;22.10;91.40
39849;DHT22;25518;47.878;15.914;2023-08-08T16:04:19;22.50;93.50
39849;DHT22;25518;47.878;15.914;2023-08-08T16:07:09;22.50;94.70
39849;DHT22;25518;47.878;15.914;2023-08-08T16:10:00;22.50;94.40
39849;DHT22;25518;47.878;15.914;2023-08-08T16:12:51;22.40;94.40
39849;DHT22;25518;47.878;15.914;2023-08-08T16:15:40;20.60;94.70
39849;DHT22;25518;47.878;15.914;2023-08-08T16:18:30;22.10;95.40
39849;DHT22;25518;47.878;15.914;2023-08-08T16:21:20;21.80;95.10
39849;DHT22;25518;47.878;15.914;2023-08-08T16:24:10;21.90;95.50
39849;DHT22;25518;47.878;15.914;2023-08-08T16:26:59;21.70;95.50
39849;DHT22;25518;47.878;15.914;2023-08-08T16:29:49;21.50;94.40
39849;DHT22;25518;47.878;15.914;2023-08-08T16:32:39;21.20;96.70
39849;DHT22;25518;47.878;15.914;2023-08-08T16:35:29;21.10;96.80
39849;DHT22;25518;47.878;15.914;2023-08-08T16:38:18;21.00;97.20
39849;DHT22;25518;47.878;15.914;2023-08-08T16:41:08;20.70;98.00
39849;DHT22;25518;47.878;15.914;2023-08-08T16:44:02;20.60;98.30
39849;DHT22;25518;47.878;15.914;2023-08-08T16:46:52;20.40;98.80
39849;DHT22;25518;47.878;15.914;2023-08-08T16:49:42;20.20;98.90
39849;DHT22;25518;47.878;15.914;2023-08-08T16:52:31;20.20;99.80
39849;DHT22;25518;47.878;15.914;2023-08-08T16:55:21;20.20;99.90
39849;DHT22;25518;47.878;15.914;2023-08-08T16:58:12;20.20;99.90
39849;DHT22;25518;47.878;15.914;2023-08-08T17:01:01;20.40;99.90
39849;DHT22;25518;47.878;15.914;2023-08-08T17:03:51;20.30;99.90
39849;DHT22;25518;47.878;15.914;2023-08-08T17:06:41;20.30;99.90
39849;DHT22;25518;47.878;15.914;2023-08-08T17:09:32;20.10;99.90
39849;DHT22;25518;47.878;15.914;2023-08-08T17:12:22;19.90;99.90
39849;DHT22;25518;47.878;15.914;2023-08-08T17:15:11;19.90;99.90
39849;DHT22;25518;47.878;15.914;2023-08-08T17:18:01;19.90;99.90
39849;DHT22;25518;47.878;15.914;2023-08-08T17:20:51;19.90;99.90
39849;DHT22;25518;47.878;15.914;2023-08-08T17:23:40;19.80;99.90
39849;DHT22;25518;47.878;15.914;2023-08-08T17:26:30;19.70;99.90
39849;DHT22;25518;47.878;15.914;2023-08-08T17:29:20;19.60;99.90
39849;DHT22;25518;47.878;15.914;2023-08-08T17:32:09;19.40;99.90
39849;DHT22;25518;47.878;15.914;2023-08-08T17:34:59;19.20;99.90
39849;DHT22;25518;47.878;15.914;2023-08-08T17:37:50;18.90;99.90
39849;DHT22;25518;47.878;15.914;2023-08-08T17:40:40;18.80;99.90
39849;DHT22;25518;47.878;15.914;2023-08-08T17:43:29;18.50;99.90
39849;DHT22;25518;47.878;15.914;2023-08-08T17:46:19;18.40;99.90
39849;DHT22;25518;47.878;15.914;2023-08-08T17:49:09;17.50;99.90
39849;DHT22;25518;47.878;15.914;2023-08-08T17:51:58;18.00;99.90
39849;DHT22;25518;47.878;15.914;2023-08-08T17:54:48;17.70;99.90
39849;DHT22;25518;47.878;15.914;2023-08-08T17:57:38;17.40;99.90
39849;DHT22;25518;47.878;15.914;2023-08-08T18:00:27;17.30;99.90